sensor_id;sensor_type;location;lat;lon;timestamp;P1;durP1;ratioP1;P2;durP2;ratioP2
37847;SDS011;23688;33.130;-117.188;2023-03-01T00:01:11;14.38;;;2.42;;
37847;SDS011;23688;33.130;-117.188;2023-03-01T00:03:39;10.00;;;1.88;;
37847;SDS011;23688;33.130;-117.188;2023-03-01T00:06:06;11.18;;;2.03;;
37847;SDS011;23688;33.130;-117.188;2023-03-01T00:08:34;10.80;;;2.53;;
37847;SDS011;23688;33.130;-117.188;2023-03-01T00:11:05;15.52;;;2.65;;
37847;SDS011;23688;33.130;-117.188;2023-03-01T00:13:34;7.85;;;1.25;;
37847;SDS011;23688;33.130;-117.188;2023-03-01T00:16:03;8.68;;;2.15;;
37847;SDS011;23688;33.130;-117.188;2023-03-01T00:18:31;9.02;;;1.60;;
37847;SDS011;23688;33.130;-117.188;2023-03-01T00:20:57;9.27;;;1.63;;
37847;SDS011;23688;33.130;-117.188;2023-03-01T00:23:23;17.65;;;2.33;;
37847;SDS011;23688;33.130;-117.188;2023-03-01T00:25:50;11.13;;;2.05;;
37847;SDS011;23688;33.130;-117.188;2023-03-01T00:28:17;10.70;;;2.25;;
37847;SDS011;23688;33.130;-117.188;2023-03-01T00:30:45;13.10;;;2.17;;
37847;SDS011;23688;33.130;-117.188;2023-03-01T00:33:12;16.40;;;2.63;;
37847;SDS011;23688;33.130;-117.188;2023-03-01T00:35:38;17.15;;;2.78;;
37847;SDS011;23688;33.130;-117.188;2023-03-01T00:38:08;19.98;;;2.42;;
37847;SDS011;23688;33.130;-117.188;2023-03-01T00:40:35;11.65;;;1.90;;
37847;SDS011;23688;33.130;-117.188;2023-03-01T00:43:02;12.00;;;1.88;;
37847;SDS011;23688;33.130;-117.188;2023-03-01T00:45:29;12.85;;;1.98;;
37847;SDS011;23688;33.130;-117.188;2023-03-01T00:47:59;11.73;;;1.70;;
37847;SDS011;23688;33.130;-117.188;2023-03-01T00:50:25;10.40;;;2.60;;
37847;SDS011;23688;33.130;-117.188;2023-03-01T00:52:52;8.07;;;1.65;;
37847;SDS011;23688;33.130;-117.188;2023-03-01T00:55:19;9.50;;;1.83;;
37847;SDS011;23688;33.130;-117.188;2023-03-01T00:57:45;16.65;;;2.25;;
37847;SDS011;23688;33.130;-117.188;2023-03-01T01:00:12;9.30;;;1.83;;
37847;SDS011;23688;33.130;-117.188;2023-03-01T01:02:38;8.43;;;2.30;;
37847;SDS011;23688;33.130;-117.188;2023-03-01T01:05:05;18.23;;;2.35;;
37847;SDS011;23688;33.130;-117.188;2023-03-01T01:07:32;13.20;;;2.40;;
37847;SDS011;23688;33.130;-117.188;2023-03-01T01:09:58;18.27;;;2.53;;
37847;SDS011;23688;33.130;-117.188;2023-03-01T01:12:25;17.38;;;2.42;;
37847;SDS011;23688;33.130;-117.188;2023-03-01T01:14:51;10.65;;;2.50;;
37847;SDS011;23688;33.130;-117.188;2023-03-01T01:17:17;16.20;;;3.05;;
37847;SDS011;23688;33.130;-117.188;2023-03-01T01:19:44;12.23;;;2.42;;
37847;SDS011;23688;33.130;-117.188;2023-03-01T01:22:10;11.82;;;2.15;;
37847;SDS011;23688;33.130;-117.188;2023-03-01T01:24:36;17.15;;;2.17;;
37847;SDS011;23688;33.130;-117.188;2023-03-01T01:27:03;10.50;;;2.17;;
37847;SDS011;23688;33.130;-117.188;2023-03-01T01:29:29;9.07;;;1.95;;
37847;SDS011;23688;33.130;-117.188;2023-03-01T01:31:55;10.93;;;1.88;;
37847;SDS011;23688;33.130;-117.188;2023-03-01T01:34:22;16.20;;;2.25;;
37847;SDS011;23688;33.130;-117.188;2023-03-01T01:36:48;15.50;;;2.42;;
37847;SDS011;23688;33.130;-117.188;2023-03-01T01:39:18;13.23;;;2.17;;
37847;SDS011;23688;33.130;-117.188;2023-03-01T01:41:44;23.90;;;2.65;;
37847;SDS011;23688;33.130;-117.188;2023-03-01T01:44:13;11.25;;;3.28;;
37847;SDS011;23688;33.130;-117.188;2023-03-01T01:46:44;16.83;;;2.22;;
37847;SDS011;23688;33.130;-117.188;2023-03-01T01:49:19;13.63;;;2.53;;
37847;SDS011;23688;33.130;-117.188;2023-03-01T01:51:47;14.27;;;2.22;;
37847;SDS011;23688;33.130;-117.188;2023-03-01T01:54:21;10.82;;;2.60;;
37847;SDS011;23688;33.130;-117.188;2023-03-01T01:57:00;11.32;;;2.72;;
37847;SDS011;23688;33.130;-117.188;2023-03-01T01:59:29;14.20;;;3.10;;
37847;SDS011;23688;33.130;-117.188;2023-03-01T02:01:59;21.33;;;2.95;;
37847;SDS011;23688;33.130;-117.188;2023-03-01T02:04:28;9.65;;;2.28;;
37847;SDS011;23688;33.130;-117.188;2023-03-01T02:07:01;18.47;;;2.40;;
37847;SDS011;23688;33.130;-117.188;2023-03-01T02:09:49;18.55;;;3.10;;
37847;SDS011;23688;33.130;-117.188;2023-03-01T02:14:45;16.25;;;2.65;;
37847;SDS011;23688;33.130;-117.188;2023-03-01T02:17:12;11.43;;;2.38;;
37847;SDS011;23688;33.130;-117.188;2023-03-01T02:22:48;18.15;;;2.70;;
37847;SDS011;23688;33.130;-117.188;2023-03-01T02:27:56;22.13;;;3.97;;
37847;SDS011;23688;33.130;-117.188;2023-03-01T02:30:24;13.80;;;3.33;;
37847;SDS011;23688;33.130;-117.188;2023-03-01T02:32:52;11.07;;;2.88;;
37847;SDS011;23688;33.130;-117.188;2023-03-01T02:35:21;13.73;;;2.38;;
37847;SDS011;23688;33.130;-117.188;2023-03-01T02:37:48;10.15;;;2.58;;
37847;SDS011;23688;33.130;-117.188;2023-03-01T02:40:16;20.50;;;2.80;;
37847;SDS011;23688;33.130;-117.188;2023-03-01T02:42:49;14.27;;;2.80;;
37847;SDS011;23688;33.130;-117.188;2023-03-01T02:45:17;17.73;;;2.53;;
37847;SDS011;23688;33.130;-117.188;2023-03-01T02:47:44;13.75;;;4.32;;
37847;SDS011;23688;33.130;-117.188;2023-03-01T02:50:39;22.08;;;4.38;;
37847;SDS011;23688;33.130;-117.188;2023-03-01T02:56:07;21.88;;;4.57;;
37847;SDS011;23688;33.130;-117.188;2023-03-01T02:58:39;16.88;;;4.03;;
37847;SDS011;23688;33.130;-117.188;2023-03-01T03:01:13;15.23;;;3.20;;
37847;SDS011;23688;33.130;-117.188;2023-03-01T03:03:41;16.42;;;4.03;;
37847;SDS011;23688;33.130;-117.188;2023-03-01T03:06:08;18.30;;;3.67;;
37847;SDS011;23688;33.130;-117.188;2023-03-01T03:08:34;13.05;;;2.95;;
37847;SDS011;23688;33.130;-117.188;2023-03-01T03:11:01;16.73;;;3.78;;
37847;SDS011;23688;33.130;-117.188;2023-03-01T03:13:29;10.25;;;2.63;;
37847;SDS011;23688;33.130;-117.188;2023-03-01T03:15:56;9.82;;;2.30;;
37847;SDS011;23688;33.130;-117.188;2023-03-01T03:18:24;8.50;;;1.87;;
37847;SDS011;23688;33.130;-117.188;2023-03-01T03:20:53;18.88;;;2.60;;
37847;SDS011;23688;33.130;-117.188;2023-03-01T03:23:20;17.52;;;2.55;;
37847;SDS011;23688;33.130;-117.188;2023-03-01T03:25:48;8.07;;;2.03;;
37847;SDS011;23688;33.130;-117.188;2023-03-01T03:28:18;15.00;;;2.55;;
37847;SDS011;23688;33.130;-117.188;2023-03-01T03:30:44;13.45;;;2.53;;
37847;SDS011;23688;33.130;-117.188;2023-03-01T03:33:12;9.30;;;2.10;;
37847;SDS011;23688;33.130;-117.188;2023-03-01T03:35:48;16.08;;;2.63;;
37847;SDS011;23688;33.130;-117.188;2023-03-01T03:38:16;15.20;;;2.72;;
37847;SDS011;23688;33.130;-117.188;2023-03-01T03:40:51;17.13;;;2.55;;
37847;SDS011;23688;33.130;-117.188;2023-03-01T03:43:29;15.90;;;2.65;;
37847;SDS011;23688;33.130;-117.188;2023-03-01T03:45:56;13.95;;;2.20;;
37847;SDS011;23688;33.130;-117.188;2023-03-01T03:48:23;10.63;;;2.80;;
37847;SDS011;23688;33.130;-117.188;2023-03-01T03:50:53;17.52;;;3.63;;
37847;SDS011;23688;33.130;-117.188;2023-03-01T03:53:23;10.35;;;2.53;;
37847;SDS011;23688;33.130;-117.188;2023-03-01T03:55:50;12.45;;;2.50;;
37847;SDS011;23688;33.130;-117.188;2023-03-01T03:58:17;10.27;;;2.35;;
37847;SDS011;23688;33.130;-117.188;2023-03-01T04:00:46;16.85;;;3.08;;
37847;SDS011;23688;33.130;-117.188;2023-03-01T04:03:14;17.05;;;2.95;;
37847;SDS011;23688;33.130;-117.188;2023-03-01T04:05:44;13.00;;;2.38;;
37847;SDS011;23688;33.130;-117.188;2023-03-01T04:08:10;16.80;;;3.80;;
37847;SDS011;23688;33.130;-117.188;2023-03-01T04:10:38;12.07;;;2.72;;
37847;SDS011;23688;33.130;-117.188;2023-03-01T04:13:08;15.75;;;2.47;;
37847;SDS011;23688;33.130;-117.188;2023-03-01T04:15:37;10.82;;;2.72;;
37847;SDS011;23688;33.130;-117.188;2023-03-01T04:18:06;11.75;;;2.53;;
37847;SDS011;23688;33.130;-117.188;2023-03-01T04:20:34;12.38;;;2.65;;
37847;SDS011;23688;33.130;-117.188;2023-03-01T04:23:06;15.45;;;2.55;;
37847;SDS011;23688;33.130;-117.188;2023-03-01T04:25:50;20.73;;;3.10;;
37847;SDS011;23688;33.130;-117.188;2023-03-01T04:28:22;8.40;;;2.13;;
37847;SDS011;23688;33.130;-117.188;2023-03-01T04:31:02;8.90;;;1.95;;
37847;SDS011;23688;33.130;-117.188;2023-03-01T04:36:14;9.50;;;1.77;;
37847;SDS011;23688;33.130;-117.188;2023-03-01T04:38:44;10.50;;;1.95;;
37847;SDS011;23688;33.130;-117.188;2023-03-01T04:41:14;7.10;;;2.13;;
37847;SDS011;23688;33.130;-117.188;2023-03-01T04:43:42;18.00;;;3.65;;
37847;SDS011;23688;33.130;-117.188;2023-03-01T04:46:13;11.10;;;2.10;;
37847;SDS011;23688;33.130;-117.188;2023-03-01T04:48:42;16.55;;;2.63;;
37847;SDS011;23688;33.130;-117.188;2023-03-01T04:51:09;6.28;;;1.77;;
37847;SDS011;23688;33.130;-117.188;2023-03-01T04:53:41;14.70;;;2.72;;
37847;SDS011;23688;33.130;-117.188;2023-03-01T04:56:08;9.63;;;2.00;;
37847;SDS011;23688;33.130;-117.188;2023-03-01T04:58:35;17.13;;;3.70;;
37847;SDS011;23688;33.130;-117.188;2023-03-01T05:01:07;7.63;;;2.42;;
37847;SDS011;23688;33.130;-117.188;2023-03-01T05:03:41;9.48;;;2.05;;
37847;SDS011;23688;33.130;-117.188;2023-03-01T05:06:08;9.50;;;1.98;;
37847;SDS011;23688;33.130;-117.188;2023-03-01T05:08:38;12.85;;;2.45;;
37847;SDS011;23688;33.130;-117.188;2023-03-01T05:11:05;6.80;;;2.13;;
37847;SDS011;23688;33.130;-117.188;2023-03-01T05:13:38;9.55;;;2.00;;
37847;SDS011;23688;33.130;-117.188;2023-03-01T05:16:06;12.57;;;2.35;;
37847;SDS011;23688;33.130;-117.188;2023-03-01T05:18:36;16.70;;;2.35;;
37847;SDS011;23688;33.130;-117.188;2023-03-01T05:21:08;14.13;;;2.67;;
37847;SDS011;23688;33.130;-117.188;2023-03-01T05:23:44;13.07;;;2.13;;
37847;SDS011;23688;33.130;-117.188;2023-03-01T05:26:14;7.63;;;2.00;;
37847;SDS011;23688;33.130;-117.188;2023-03-01T05:31:09;10.57;;;1.85;;
37847;SDS011;23688;33.130;-117.188;2023-03-01T05:33:36;11.90;;;2.15;;
37847;SDS011;23688;33.130;-117.188;2023-03-01T05:36:04;16.03;;;2.67;;
37847;SDS011;23688;33.130;-117.188;2023-03-01T05:38:33;13.88;;;2.00;;
37847;SDS011;23688;33.130;-117.188;2023-03-01T05:40:59;8.75;;;2.03;;
37847;SDS011;23688;33.130;-117.188;2023-03-01T05:43:26;15.13;;;2.97;;
37847;SDS011;23688;33.130;-117.188;2023-03-01T05:48:31;14.35;;;2.60;;
37847;SDS011;23688;33.130;-117.188;2023-03-01T05:50:58;15.30;;;2.13;;
37847;SDS011;23688;33.130;-117.188;2023-03-01T05:53:25;12.95;;;3.40;;
37847;SDS011;23688;33.130;-117.188;2023-03-01T05:55:53;17.77;;;2.10;;
37847;SDS011;23688;33.130;-117.188;2023-03-01T05:58:19;12.45;;;2.10;;
37847;SDS011;23688;33.130;-117.188;2023-03-01T06:00:47;16.45;;;2.60;;
37847;SDS011;23688;33.130;-117.188;2023-03-01T06:03:15;10.10;;;2.42;;
37847;SDS011;23688;33.130;-117.188;2023-03-01T06:05:42;16.58;;;2.42;;
37847;SDS011;23688;33.130;-117.188;2023-03-01T06:08:10;14.25;;;2.38;;
37847;SDS011;23688;33.130;-117.188;2023-03-01T06:10:37;16.38;;;2.83;;
37847;SDS011;23688;33.130;-117.188;2023-03-01T06:13:04;13.07;;;2.17;;
37847;SDS011;23688;33.130;-117.188;2023-03-01T06:15:31;14.88;;;2.53;;
37847;SDS011;23688;33.130;-117.188;2023-03-01T06:17:57;15.70;;;1.88;;
37847;SDS011;23688;33.130;-117.188;2023-03-01T06:20:25;20.27;;;3.40;;
37847;SDS011;23688;33.130;-117.188;2023-03-01T06:22:53;21.55;;;2.90;;
37847;SDS011;23688;33.130;-117.188;2023-03-01T06:25:24;12.60;;;2.08;;
37847;SDS011;23688;33.130;-117.188;2023-03-01T06:27:52;18.17;;;2.50;;
37847;SDS011;23688;33.130;-117.188;2023-03-01T06:30:19;14.95;;;2.30;;
37847;SDS011;23688;33.130;-117.188;2023-03-01T06:32:48;17.40;;;2.47;;
37847;SDS011;23688;33.130;-117.188;2023-03-01T06:35:16;16.77;;;2.42;;
37847;SDS011;23688;33.130;-117.188;2023-03-01T06:40:11;7.25;;;2.10;;
37847;SDS011;23688;33.130;-117.188;2023-03-01T06:42:40;15.27;;;2.50;;
37847;SDS011;23688;33.130;-117.188;2023-03-01T06:45:08;24.50;;;2.72;;
37847;SDS011;23688;33.130;-117.188;2023-03-01T06:47:36;31.38;;;2.90;;
37847;SDS011;23688;33.130;-117.188;2023-03-01T06:50:03;18.45;;;3.00;;
37847;SDS011;23688;33.130;-117.188;2023-03-01T06:52:31;15.07;;;2.75;;
37847;SDS011;23688;33.130;-117.188;2023-03-01T06:54:57;17.98;;;3.85;;
37847;SDS011;23688;33.130;-117.188;2023-03-01T06:57:24;11.65;;;2.45;;
37847;SDS011;23688;33.130;-117.188;2023-03-01T06:59:50;13.60;;;2.22;;
37847;SDS011;23688;33.130;-117.188;2023-03-01T07:02:16;18.02;;;2.55;;
37847;SDS011;23688;33.130;-117.188;2023-03-01T07:04:43;17.95;;;2.75;;
37847;SDS011;23688;33.130;-117.188;2023-03-01T07:07:09;20.45;;;2.30;;
37847;SDS011;23688;33.130;-117.188;2023-03-01T07:09:36;10.80;;;2.25;;
37847;SDS011;23688;33.130;-117.188;2023-03-01T07:12:03;22.65;;;3.80;;
37847;SDS011;23688;33.130;-117.188;2023-03-01T07:14:29;18.20;;;3.53;;
37847;SDS011;23688;33.130;-117.188;2023-03-01T07:16:55;11.75;;;2.72;;
37847;SDS011;23688;33.130;-117.188;2023-03-01T07:19:22;16.10;;;3.05;;
37847;SDS011;23688;33.130;-117.188;2023-03-01T07:21:49;17.75;;;2.78;;
37847;SDS011;23688;33.130;-117.188;2023-03-01T07:24:15;9.20;;;2.97;;
37847;SDS011;23688;33.130;-117.188;2023-03-01T07:26:41;17.65;;;2.63;;
37847;SDS011;23688;33.130;-117.188;2023-03-01T07:29:09;13.23;;;2.88;;
37847;SDS011;23688;33.130;-117.188;2023-03-01T07:31:36;15.25;;;2.70;;
37847;SDS011;23688;33.130;-117.188;2023-03-01T07:34:02;14.95;;;2.20;;
37847;SDS011;23688;33.130;-117.188;2023-03-01T07:36:29;13.88;;;3.00;;
37847;SDS011;23688;33.130;-117.188;2023-03-01T07:38:55;13.48;;;2.50;;
37847;SDS011;23688;33.130;-117.188;2023-03-01T07:41:23;24.15;;;2.50;;
37847;SDS011;23688;33.130;-117.188;2023-03-01T07:43:50;25.80;;;3.58;;
37847;SDS011;23688;33.130;-117.188;2023-03-01T07:46:16;15.48;;;2.80;;
37847;SDS011;23688;33.130;-117.188;2023-03-01T07:48:45;12.55;;;2.47;;
37847;SDS011;23688;33.130;-117.188;2023-03-01T07:51:11;22.83;;;3.28;;
37847;SDS011;23688;33.130;-117.188;2023-03-01T07:53:38;14.40;;;2.67;;
37847;SDS011;23688;33.130;-117.188;2023-03-01T07:56:05;23.55;;;3.90;;
37847;SDS011;23688;33.130;-117.188;2023-03-01T07:58:39;24.30;;;3.28;;
37847;SDS011;23688;33.130;-117.188;2023-03-01T08:01:07;11.98;;;2.85;;
37847;SDS011;23688;33.130;-117.188;2023-03-01T08:06:02;23.65;;;2.95;;
37847;SDS011;23688;33.130;-117.188;2023-03-01T08:08:30;17.13;;;2.90;;
37847;SDS011;23688;33.130;-117.188;2023-03-01T08:10:57;27.60;;;3.45;;
37847;SDS011;23688;33.130;-117.188;2023-03-01T08:13:25;21.30;;;2.55;;
37847;SDS011;23688;33.130;-117.188;2023-03-01T08:15:52;19.95;;;2.92;;
37847;SDS011;23688;33.130;-117.188;2023-03-01T08:18:19;12.52;;;2.60;;
37847;SDS011;23688;33.130;-117.188;2023-03-01T08:20:47;15.43;;;2.65;;
37847;SDS011;23688;33.130;-117.188;2023-03-01T08:23:13;17.40;;;2.70;;
37847;SDS011;23688;33.130;-117.188;2023-03-01T08:25:40;22.23;;;2.65;;
37847;SDS011;23688;33.130;-117.188;2023-03-01T08:28:06;23.38;;;3.33;;
37847;SDS011;23688;33.130;-117.188;2023-03-01T08:30:33;24.98;;;3.08;;
37847;SDS011;23688;33.130;-117.188;2023-03-01T08:33:02;20.23;;;2.50;;
37847;SDS011;23688;33.130;-117.188;2023-03-01T08:35:28;31.15;;;2.92;;
37847;SDS011;23688;33.130;-117.188;2023-03-01T08:37:54;19.45;;;2.83;;
37847;SDS011;23688;33.130;-117.188;2023-03-01T08:40:21;31.75;;;3.47;;
37847;SDS011;23688;33.130;-117.188;2023-03-01T08:42:47;24.98;;;2.75;;
37847;SDS011;23688;33.130;-117.188;2023-03-01T08:45:14;22.13;;;2.80;;
37847;SDS011;23688;33.130;-117.188;2023-03-01T08:47:43;23.35;;;3.10;;
37847;SDS011;23688;33.130;-117.188;2023-03-01T08:50:10;27.30;;;2.67;;
37847;SDS011;23688;33.130;-117.188;2023-03-01T08:52:37;21.98;;;2.45;;
37847;SDS011;23688;33.130;-117.188;2023-03-01T08:55:03;16.60;;;2.28;;
37847;SDS011;23688;33.130;-117.188;2023-03-01T08:57:30;22.13;;;2.92;;
37847;SDS011;23688;33.130;-117.188;2023-03-01T08:59:56;16.65;;;1.98;;
37847;SDS011;23688;33.130;-117.188;2023-03-01T09:02:22;16.83;;;2.75;;
37847;SDS011;23688;33.130;-117.188;2023-03-01T09:04:48;21.23;;;3.08;;
37847;SDS011;23688;33.130;-117.188;2023-03-01T09:07:15;12.07;;;1.80;;
37847;SDS011;23688;33.130;-117.188;2023-03-01T09:09:41;15.25;;;1.73;;
37847;SDS011;23688;33.130;-117.188;2023-03-01T09:12:07;19.88;;;2.30;;
37847;SDS011;23688;33.130;-117.188;2023-03-01T09:14:34;11.02;;;1.70;;
37847;SDS011;23688;33.130;-117.188;2023-03-01T09:17:02;10.57;;;2.25;;
37847;SDS011;23688;33.130;-117.188;2023-03-01T09:19:28;13.50;;;2.55;;
37847;SDS011;23688;33.130;-117.188;2023-03-01T09:21:55;20.13;;;2.50;;
37847;SDS011;23688;33.130;-117.188;2023-03-01T09:24:23;16.70;;;2.53;;
37847;SDS011;23688;33.130;-117.188;2023-03-01T09:26:51;25.13;;;3.05;;
37847;SDS011;23688;33.130;-117.188;2023-03-01T09:29:21;18.63;;;2.33;;
37847;SDS011;23688;33.130;-117.188;2023-03-01T09:31:47;18.85;;;2.42;;
37847;SDS011;23688;33.130;-117.188;2023-03-01T09:34:14;27.08;;;3.08;;
37847;SDS011;23688;33.130;-117.188;2023-03-01T09:36:48;27.38;;;3.22;;
37847;SDS011;23688;33.130;-117.188;2023-03-01T09:39:15;26.40;;;2.25;;
37847;SDS011;23688;33.130;-117.188;2023-03-01T09:42:03;19.27;;;2.55;;
37847;SDS011;23688;33.130;-117.188;2023-03-01T09:47:29;17.13;;;2.38;;
37847;SDS011;23688;33.130;-117.188;2023-03-01T09:50:11;26.23;;;2.75;;
37847;SDS011;23688;33.130;-117.188;2023-03-01T09:52:43;19.77;;;2.75;;
37847;SDS011;23688;33.130;-117.188;2023-03-01T09:55:13;26.90;;;3.40;;
37847;SDS011;23688;33.130;-117.188;2023-03-01T09:57:43;14.10;;;1.83;;
37847;SDS011;23688;33.130;-117.188;2023-03-01T10:03:12;17.58;;;2.13;;
37847;SDS011;23688;33.130;-117.188;2023-03-01T10:08:29;21.25;;;2.67;;
37847;SDS011;23688;33.130;-117.188;2023-03-01T10:11:38;32.25;;;4.13;;
37847;SDS011;23688;33.130;-117.188;2023-03-01T10:17:28;31.13;;;3.67;;
37847;SDS011;23688;33.130;-117.188;2023-03-01T10:20:20;33.42;;;3.05;;
37847;SDS011;23688;33.130;-117.188;2023-03-01T10:23:08;28.38;;;2.95;;
37847;SDS011;23688;33.130;-117.188;2023-03-01T10:28:25;20.17;;;2.22;;
37847;SDS011;23688;33.130;-117.188;2023-03-01T10:31:03;30.50;;;3.40;;
37847;SDS011;23688;33.130;-117.188;2023-03-01T10:33:31;20.20;;;1.77;;
37847;SDS011;23688;33.130;-117.188;2023-03-01T10:36:01;24.67;;;2.65;;
37847;SDS011;23688;33.130;-117.188;2023-03-01T10:38:27;14.93;;;1.92;;
37847;SDS011;23688;33.130;-117.188;2023-03-01T10:41:15;27.45;;;3.60;;
37847;SDS011;23688;33.130;-117.188;2023-03-01T10:44:33;19.75;;;3.25;;
37847;SDS011;23688;33.130;-117.188;2023-03-01T10:47:00;20.48;;;2.30;;
37847;SDS011;23688;33.130;-117.188;2023-03-01T10:49:27;27.05;;;3.92;;
37847;SDS011;23688;33.130;-117.188;2023-03-01T10:51:53;17.88;;;2.38;;
37847;SDS011;23688;33.130;-117.188;2023-03-01T10:54:29;12.18;;;2.08;;
37847;SDS011;23688;33.130;-117.188;2023-03-01T10:56:58;16.50;;;1.80;;
37847;SDS011;23688;33.130;-117.188;2023-03-01T11:02:17;16.20;;;1.85;;
37847;SDS011;23688;33.130;-117.188;2023-03-01T11:05:21;18.35;;;2.10;;
37847;SDS011;23688;33.130;-117.188;2023-03-01T11:07:48;10.65;;;1.65;;
37847;SDS011;23688;33.130;-117.188;2023-03-01T11:10:20;20.77;;;2.45;;
37847;SDS011;23688;33.130;-117.188;2023-03-01T11:12:52;24.95;;;2.83;;
37847;SDS011;23688;33.130;-117.188;2023-03-01T11:15:26;21.10;;;2.65;;
37847;SDS011;23688;33.130;-117.188;2023-03-01T11:17:54;16.45;;;2.72;;
37847;SDS011;23688;33.130;-117.188;2023-03-01T11:22:56;23.65;;;2.70;;
37847;SDS011;23688;33.130;-117.188;2023-03-01T11:25:29;23.98;;;3.95;;
37847;SDS011;23688;33.130;-117.188;2023-03-01T11:28:03;26.58;;;3.30;;
37847;SDS011;23688;33.130;-117.188;2023-03-01T11:30:38;22.42;;;2.92;;
37847;SDS011;23688;33.130;-117.188;2023-03-01T11:36:03;38.97;;;4.03;;
37847;SDS011;23688;33.130;-117.188;2023-03-01T11:38:28;34.72;;;4.32;;
37847;SDS011;23688;33.130;-117.188;2023-03-01T11:54:42;35.40;;;4.38;;
37847;SDS011;23688;33.130;-117.188;2023-03-01T12:00:15;47.72;;;5.90;;
37847;SDS011;23688;33.130;-117.188;2023-03-01T12:02:48;36.28;;;5.13;;
37847;SDS011;23688;33.130;-117.188;2023-03-01T12:08:41;38.35;;;5.45;;
37847;SDS011;23688;33.130;-117.188;2023-03-01T12:11:37;29.25;;;4.20;;
37847;SDS011;23688;33.130;-117.188;2023-03-01T12:17:08;29.90;;;4.57;;
37847;SDS011;23688;33.130;-117.188;2023-03-01T12:20:05;31.13;;;4.00;;
37847;SDS011;23688;33.130;-117.188;2023-03-01T12:39:15;27.88;;;3.53;;
37847;SDS011;23688;33.130;-117.188;2023-03-01T12:42:44;19.95;;;3.67;;
37847;SDS011;23688;33.130;-117.188;2023-03-01T12:44:57;28.77;;;3.47;;
37847;SDS011;23688;33.130;-117.188;2023-03-01T12:50:29;37.92;;;5.13;;
37847;SDS011;23688;33.130;-117.188;2023-03-01T12:53:02;33.67;;;3.92;;
37847;SDS011;23688;33.130;-117.188;2023-03-01T12:55:33;35.55;;;4.65;;
37847;SDS011;23688;33.130;-117.188;2023-03-01T13:10:11;29.60;;;3.70;;
37847;SDS011;23688;33.130;-117.188;2023-03-01T13:15:34;33.83;;;4.68;;
37847;SDS011;23688;33.130;-117.188;2023-03-01T13:23:24;26.58;;;4.93;;
37847;SDS011;23688;33.130;-117.188;2023-03-01T13:33:42;28.50;;;4.38;;
37847;SDS011;23688;33.130;-117.188;2023-03-01T13:49:43;40.00;;;4.85;;
37847;SDS011;23688;33.130;-117.188;2023-03-01T13:55:06;34.72;;;4.70;;
37847;SDS011;23688;33.130;-117.188;2023-03-01T13:57:53;34.28;;;3.65;;
37847;SDS011;23688;33.130;-117.188;2023-03-01T14:00:36;27.00;;;5.88;;
37847;SDS011;23688;33.130;-117.188;2023-03-01T14:03:11;33.67;;;3.55;;
37847;SDS011;23688;33.130;-117.188;2023-03-01T14:05:57;29.15;;;3.95;;
37847;SDS011;23688;33.130;-117.188;2023-03-01T14:08:26;33.90;;;4.68;;
37847;SDS011;23688;33.130;-117.188;2023-03-01T14:10:57;39.22;;;5.38;;
37847;SDS011;23688;33.130;-117.188;2023-03-01T14:24:50;37.33;;;3.63;;
37847;SDS011;23688;33.130;-117.188;2023-03-01T14:27:23;36.22;;;4.22;;
37847;SDS011;23688;33.130;-117.188;2023-03-01T14:30:21;42.03;;;4.65;;
37847;SDS011;23688;33.130;-117.188;2023-03-01T14:32:54;45.88;;;4.63;;
37847;SDS011;23688;33.130;-117.188;2023-03-01T14:35:27;36.92;;;4.30;;
37847;SDS011;23688;33.130;-117.188;2023-03-01T14:37:59;47.35;;;4.43;;
37847;SDS011;23688;33.130;-117.188;2023-03-01T14:40:29;31.90;;;4.55;;
37847;SDS011;23688;33.130;-117.188;2023-03-01T14:42:59;49.95;;;4.97;;
37847;SDS011;23688;33.130;-117.188;2023-03-01T14:45:28;34.08;;;3.88;;
37847;SDS011;23688;33.130;-117.188;2023-03-01T14:47:59;33.50;;;3.42;;
37847;SDS011;23688;33.130;-117.188;2023-03-01T14:50:31;30.63;;;4.88;;
37847;SDS011;23688;33.130;-117.188;2023-03-01T14:53:05;29.40;;;3.97;;
37847;SDS011;23688;33.130;-117.188;2023-03-01T14:55:37;42.65;;;3.28;;
37847;SDS011;23688;33.130;-117.188;2023-03-01T14:58:11;33.90;;;4.15;;
37847;SDS011;23688;33.130;-117.188;2023-03-01T15:00:40;38.92;;;3.58;;
37847;SDS011;23688;33.130;-117.188;2023-03-01T15:03:17;32.30;;;3.78;;
37847;SDS011;23688;33.130;-117.188;2023-03-01T15:06:06;25.77;;;4.03;;
37847;SDS011;23688;33.130;-117.188;2023-03-01T15:08:34;25.98;;;3.88;;
37847;SDS011;23688;33.130;-117.188;2023-03-01T15:11:15;24.30;;;3.13;;
37847;SDS011;23688;33.130;-117.188;2023-03-01T15:16:54;33.63;;;3.92;;
37847;SDS011;23688;33.130;-117.188;2023-03-01T15:19:21;30.67;;;4.10;;
37847;SDS011;23688;33.130;-117.188;2023-03-01T15:21:51;31.98;;;3.92;;
37847;SDS011;23688;33.130;-117.188;2023-03-01T15:24:20;30.52;;;3.35;;
37847;SDS011;23688;33.130;-117.188;2023-03-01T15:26:55;25.75;;;2.88;;
37847;SDS011;23688;33.130;-117.188;2023-03-01T15:29:30;25.25;;;3.55;;
37847;SDS011;23688;33.130;-117.188;2023-03-01T15:32:03;28.35;;;3.60;;
37847;SDS011;23688;33.130;-117.188;2023-03-01T15:34:49;22.38;;;2.70;;
37847;SDS011;23688;33.130;-117.188;2023-03-01T15:37:39;32.42;;;4.15;;
37847;SDS011;23688;33.130;-117.188;2023-03-01T15:40:18;38.60;;;4.68;;
37847;SDS011;23688;33.130;-117.188;2023-03-01T15:42:45;35.65;;;4.00;;
37847;SDS011;23688;33.130;-117.188;2023-03-01T15:47:51;42.95;;;4.43;;
37847;SDS011;23688;33.130;-117.188;2023-03-01T15:52:49;43.63;;;4.75;;
37847;SDS011;23688;33.130;-117.188;2023-03-01T15:55:17;29.52;;;3.78;;
37847;SDS011;23688;33.130;-117.188;2023-03-01T15:57:48;35.05;;;4.43;;
37847;SDS011;23688;33.130;-117.188;2023-03-01T16:00:16;33.92;;;5.15;;
37847;SDS011;23688;33.130;-117.188;2023-03-01T16:02:43;39.50;;;4.30;;
37847;SDS011;23688;33.130;-117.188;2023-03-01T16:05:21;29.60;;;4.83;;
37847;SDS011;23688;33.130;-117.188;2023-03-01T16:07:51;33.85;;;4.80;;
37847;SDS011;23688;33.130;-117.188;2023-03-01T16:10:18;26.85;;;3.80;;
37847;SDS011;23688;33.130;-117.188;2023-03-01T16:12:45;25.73;;;3.15;;
37847;SDS011;23688;33.130;-117.188;2023-03-01T16:15:20;30.05;;;3.63;;
37847;SDS011;23688;33.130;-117.188;2023-03-01T16:17:47;24.55;;;2.50;;
37847;SDS011;23688;33.130;-117.188;2023-03-01T16:20:14;23.67;;;2.55;;
37847;SDS011;23688;33.130;-117.188;2023-03-01T16:22:41;29.70;;;2.75;;
37847;SDS011;23688;33.130;-117.188;2023-03-01T16:25:09;29.00;;;3.15;;
37847;SDS011;23688;33.130;-117.188;2023-03-01T16:27:37;23.17;;;3.53;;
37847;SDS011;23688;33.130;-117.188;2023-03-01T16:30:05;38.33;;;4.00;;
37847;SDS011;23688;33.130;-117.188;2023-03-01T16:32:37;27.25;;;3.80;;
37847;SDS011;23688;33.130;-117.188;2023-03-01T16:35:08;28.95;;;3.10;;
37847;SDS011;23688;33.130;-117.188;2023-03-01T16:37:36;28.85;;;3.40;;
37847;SDS011;23688;33.130;-117.188;2023-03-01T16:40:03;34.83;;;3.88;;
37847;SDS011;23688;33.130;-117.188;2023-03-01T16:42:35;40.13;;;3.70;;
37847;SDS011;23688;33.130;-117.188;2023-03-01T16:45:02;20.52;;;2.72;;
37847;SDS011;23688;33.130;-117.188;2023-03-01T16:47:29;37.78;;;4.07;;
37847;SDS011;23688;33.130;-117.188;2023-03-01T16:49:55;31.85;;;4.47;;